Rae — WDF3909 — position and weather

sailwx.info

Track history (hours):
 
Tides and Currents Weather Stations Pressure Air Temp Water Temp Dewpoint Dewpoint Depression Visibility Wind Speed Wind Dir Waves Ship Positions

Rae

Owner: Fox Marine Corporation, Easton, PA. More information available from US FCC via Universal Licensing System and Coast Guard Vessel Documentation Center.

Last reported at 2017-Sep-01 23:39 UTC. Time now 2017-Sep-23 14:34 UTC.
Position N 40°41' W 074°04'.
Warning: this ship's position is 21 days out of date.

; draft 2 m.

Type: Fishing. MMSI: 367445510.

Date/timePositionNaut miles runAvg speedWind from/ knotsBaromVisibWave heightAir tempDewpointWater temp
2017-Sep-01 23:39N 40°41' W 074°04'1 5.6
2017-Sep-01 23:30N 40°40' W 074°03'3 6.3
2017-Sep-01 23:00N 40°37' W 074°03'3 6.1
2017-Sep-01 22:29N 40°34' W 074°00'7 2.2
2017-Sep-01 19:21N 40°38' W 073°53'1 4.2
2017-Sep-01 18:59N 40°36' W 073°53'2 4.2
2017-Sep-01 18:28N 40°34' W 073°54'4 5.2
2017-Sep-01 17:41N 40°34' W 073°59'1 3.8
2017-Sep-01 17:30N 40°34' W 074°00'2 4.1
2017-Sep-01 17:00N 40°36' W 074°02'2 4.9
2017-Sep-01 16:30N 40°38' W 074°03'2 4.7
2017-Sep-01 16:00N 40°40' W 074°01'3 5.3
2017-Sep-01 15:30N 40°42' W 073°60'3 5.2
2017-Sep-01 15:00N 40°45' W 073°58'4 7.0
2017-Sep-01 14:30N 40°47' W 073°55'  
Track history (hours):
 
Tides and Currents Weather Stations Pressure Air Temp Water Temp Dewpoint Dewpoint Depression Visibility Wind Speed Wind Dir Waves Ship Positions

Rae

Owner: Fox Marine Corporation, Easton, PA. More information available from US FCC via Universal Licensing System and Coast Guard Vessel Documentation Center.

Last reported at 2017-Sep-01 23:39 UTC. Time now 2017-Sep-23 14:34 UTC.
Position N 40°41' W 074°04'.
Warning: this ship's position is 21 days out of date.

; draft 2 m.

Type: Fishing. MMSI: 367445510.

Date/timePositionNaut miles runAvg speedWind from/ knotsBaromVisibWave heightAir tempDewpointWater temp
2017-Sep-01 23:39N 40°41' W 074°04'1 5.6
2017-Sep-01 23:30N 40°40' W 074°03'3 6.3
2017-Sep-01 23:00N 40°37' W 074°03'3 6.1
2017-Sep-01 22:29N 40°34' W 074°00'7 2.2
2017-Sep-01 19:21N 40°38' W 073°53'1 4.2
2017-Sep-01 18:59N 40°36' W 073°53'2 4.2
2017-Sep-01 18:28N 40°34' W 073°54'4 5.2
2017-Sep-01 17:41N 40°34' W 073°59'1 3.8
2017-Sep-01 17:30N 40°34' W 074°00'2 4.1
2017-Sep-01 17:00N 40°36' W 074°02'2 4.9
2017-Sep-01 16:30N 40°38' W 074°03'2 4.7
2017-Sep-01 16:00N 40°40' W 074°01'3 5.3
2017-Sep-01 15:30N 40°42' W 073°60'3 5.2
2017-Sep-01 15:00N 40°45' W 073°58'4 7.0
2017-Sep-01 14:30N 40°47' W 073°55'  

Dump ship's entire track history